createdAt,value
2022-08-30T00:00:12.251Z,0.00
2022-08-30T00:01:13.620Z,0.00
2022-08-30T00:02:12.214Z,0.00
2022-08-30T00:03:12.412Z,0.00
2022-08-30T00:04:12.173Z,0.00
2022-08-30T00:05:12.161Z,0.00
2022-08-30T00:06:12.143Z,0.00
2022-08-30T00:07:12.143Z,0.00
2022-08-30T00:08:12.136Z,0.00
2022-08-30T00:09:12.141Z,0.00
2022-08-30T00:10:12.104Z,0.00
2022-08-30T00:11:12.100Z,0.00
2022-08-30T00:12:12.088Z,0.00
2022-08-30T00:13:12.081Z,0.00
2022-08-30T00:14:12.081Z,0.00
2022-08-30T00:15:12.186Z,0.00
2022-08-30T00:16:12.620Z,0.00
2022-08-30T00:17:12.035Z,0.00
2022-08-30T00:18:12.055Z,0.00
2022-08-30T00:19:12.037Z,0.00
2022-08-30T00:20:11.998Z,0.00
2022-08-30T00:21:11.995Z,0.00
2022-08-30T00:22:11.972Z,0.00
2022-08-30T00:23:11.984Z,0.00
2022-08-30T00:24:11.981Z,0.00
2022-08-30T00:25:11.955Z,0.00
2022-08-30T00:26:11.960Z,0.00
2022-08-30T00:27:11.934Z,0.00
2022-08-30T00:28:11.928Z,0.00
2022-08-30T00:29:11.938Z,0.00
2022-08-30T00:30:11.892Z,0.00
2022-08-30T00:31:15.310Z,0.00
2022-08-30T00:32:11.882Z,0.00
2022-08-30T00:33:11.877Z,0.00
2022-08-30T00:34:11.872Z,0.00
2022-08-30T00:35:11.852Z,0.00
2022-08-30T00:36:11.849Z,0.00
2022-08-30T00:37:11.836Z,0.00
2022-08-30T00:38:11.829Z,0.00
2022-08-30T00:39:11.830Z,0.00
2022-08-30T00:40:11.849Z,0.00
2022-08-30T00:41:11.792Z,0.00
2022-08-30T00:42:12.781Z,0.00
2022-08-30T00:43:14.095Z,0.00
2022-08-30T00:44:11.787Z,0.00
2022-08-30T00:45:11.756Z,0.00
2022-08-30T00:46:11.764Z,0.00
2022-08-30T00:47:11.731Z,0.00
2022-08-30T00:48:11.726Z,0.00
2022-08-30T00:49:11.725Z,0.00
2022-08-30T00:50:11.706Z,0.00
2022-08-30T00:51:11.697Z,0.00
2022-08-30T00:52:11.690Z,0.00
2022-08-30T00:53:11.669Z,0.00
2022-08-30T00:54:11.671Z,0.00
2022-08-30T00:55:11.659Z,0.00
2022-08-30T00:56:11.633Z,0.00
2022-08-30T00:57:11.629Z,0.00
2022-08-30T00:58:11.620Z,0.00
2022-08-30T00:59:11.627Z,0.00
2022-08-30T01:00:11.598Z,0.00
2022-08-30T01:01:11.636Z,0.00
2022-08-30T01:02:11.613Z,0.00
2022-08-30T01:03:11.568Z,0.00
2022-08-30T01:04:11.578Z,0.00
2022-08-30T01:05:11.545Z,0.00
2022-08-30T01:06:11.548Z,0.00
2022-08-30T01:07:11.533Z,0.00
2022-08-30T01:08:11.526Z,0.00
2022-08-30T01:09:11.523Z,0.00
2022-08-30T01:10:11.495Z,0.00
2022-08-30T01:11:11.494Z,0.00
2022-08-30T01:12:11.497Z,0.00
2022-08-30T01:13:11.464Z,0.00
2022-08-30T01:14:11.497Z,0.00
2022-08-30T01:15:11.448Z,0.00
2022-08-30T01:16:11.565Z,0.00
2022-08-30T01:17:11.429Z,0.00
2022-08-30T01:18:11.407Z,0.00
2022-08-30T01:19:11.426Z,0.00
2022-08-30T01:20:11.391Z,0.00
2022-08-30T01:21:11.378Z,0.00
2022-08-30T01:22:11.368Z,0.00
2022-08-30T01:23:11.362Z,0.00
2022-08-30T01:24:11.374Z,0.00
2022-08-30T01:25:11.340Z,0.00
2022-08-30T01:26:11.326Z,0.00
2022-08-30T01:27:11.327Z,0.00
2022-08-30T01:28:11.316Z,0.00
2022-08-30T01:29:11.324Z,0.00
2022-08-30T01:30:11.295Z,0.00
2022-08-30T01:31:11.310Z,0.00
2022-08-30T01:32:11.269Z,0.00
2022-08-30T01:33:14.548Z,0.00
2022-08-30T01:34:11.268Z,0.00
2022-08-30T01:35:11.235Z,0.00
2022-08-30T01:36:11.228Z,0.00
2022-08-30T01:37:11.227Z,0.00
2022-08-30T01:38:11.216Z,0.00
2022-08-30T01:39:11.222Z,0.00
2022-08-30T01:40:11.266Z,0.00
2022-08-30T01:41:11.180Z,0.00
2022-08-30T01:42:11.169Z,0.00
2022-08-30T01:43:11.164Z,0.00
2022-08-30T01:44:11.199Z,0.00
2022-08-30T01:45:11.150Z,0.00
2022-08-30T01:46:11.186Z,0.00
2022-08-30T01:47:11.118Z,0.00
2022-08-30T01:48:11.114Z,0.00
2022-08-30T01:49:11.119Z,0.00
2022-08-30T01:50:11.112Z,0.00
2022-08-30T01:51:11.089Z,0.00
2022-08-30T01:52:11.072Z,0.00
2022-08-30T01:53:13.329Z,0.00
2022-08-30T01:54:11.081Z,0.00
2022-08-30T01:55:11.064Z,0.00
2022-08-30T01:56:11.037Z,0.00
2022-08-30T01:57:11.018Z,0.00
2022-08-30T01:58:11.014Z,0.00
2022-08-30T01:59:11.022Z,0.00
2022-08-30T02:00:10.994Z,0.00
2022-08-30T02:01:11.006Z,0.00
2022-08-30T02:02:10.969Z,0.00
2022-08-30T02:03:10.954Z,0.00
2022-08-30T02:04:10.997Z,0.00
2022-08-30T02:05:10.940Z,0.00
2022-08-30T02:06:10.928Z,0.00
2022-08-30T02:07:10.917Z,0.00
2022-08-30T02:08:10.924Z,0.00
2022-08-30T02:09:10.917Z,0.00
2022-08-30T02:10:10.889Z,0.00
2022-08-30T02:11:10.871Z,0.00
2022-08-30T02:12:10.866Z,0.00
2022-08-30T02:13:10.860Z,0.00
2022-08-30T02:14:10.863Z,0.00
2022-08-30T02:16:56.021Z,0.00
2022-08-30T02:17:55.971Z,0.00
2022-08-30T02:18:55.974Z,0.00
2022-08-30T02:19:55.946Z,0.00
2022-08-30T02:20:55.940Z,0.00
2022-08-30T02:21:55.928Z,0.00
2022-08-30T02:22:59.620Z,0.00
2022-08-30T02:23:56.920Z,0.00
2022-08-30T02:24:55.897Z,0.00
2022-08-30T02:25:55.882Z,0.00
2022-08-30T02:26:55.878Z,0.00
2022-08-30T02:27:55.902Z,0.00
2022-08-30T02:28:55.877Z,0.00
2022-08-30T02:29:55.850Z,0.00
2022-08-30T02:30:55.885Z,0.00
2022-08-30T02:31:55.834Z,0.00
2022-08-30T02:32:55.816Z,0.00
2022-08-30T02:33:56.939Z,0.00
2022-08-30T02:34:56.912Z,0.00
2022-08-30T02:35:56.900Z,0.00
2022-08-30T02:36:56.895Z,0.00
2022-08-30T02:37:56.887Z,0.00
2022-08-30T02:38:56.889Z,0.00
2022-08-30T02:39:56.928Z,0.00
2022-08-30T02:40:56.853Z,0.00
2022-08-30T02:41:56.842Z,0.00
2022-08-30T02:42:56.833Z,0.00
2022-08-30T02:43:56.838Z,0.00
2022-08-30T02:44:56.814Z,0.00
2022-08-30T02:45:56.828Z,0.00
2022-08-30T02:46:56.785Z,0.00
2022-08-30T02:47:56.788Z,0.00
2022-08-30T02:48:56.785Z,0.00
2022-08-30T02:49:56.756Z,0.00
2022-08-30T02:50:56.750Z,0.00
2022-08-30T02:51:56.742Z,0.00
2022-08-30T02:52:58.698Z,0.00
2022-08-30T02:53:56.731Z,0.00
2022-08-30T02:54:56.709Z,0.00
2022-08-30T02:55:56.697Z,0.00
2022-08-30T02:56:56.682Z,0.00
2022-08-30T02:57:56.674Z,0.00
2022-08-30T02:58:56.718Z,0.00
2022-08-30T02:59:56.659Z,0.00
2022-08-30T03:00:56.703Z,0.00
2022-08-30T03:01:56.648Z,0.00
2022-08-30T03:02:56.632Z,0.00
2022-08-30T03:03:56.681Z,0.00
2022-08-30T03:04:56.618Z,0.00
2022-08-30T03:05:56.599Z,0.00
2022-08-30T03:06:56.592Z,0.00
2022-08-30T03:07:56.600Z,0.00
2022-08-30T03:08:56.591Z,0.00
2022-08-30T03:09:56.546Z,0.00
2022-08-30T03:10:56.550Z,0.00
2022-08-30T03:11:56.546Z,0.00
2022-08-30T03:12:56.535Z,0.00
2022-08-30T03:13:56.544Z,0.00
2022-08-30T03:14:56.511Z,0.00
2022-08-30T03:15:56.504Z,0.00
2022-08-30T03:16:56.537Z,0.00
2022-08-30T03:17:56.502Z,0.00
2022-08-30T03:18:56.493Z,0.00
2022-08-30T03:19:56.472Z,0.00
2022-08-30T03:20:56.464Z,0.00
2022-08-30T03:21:56.440Z,0.00
2022-08-30T03:22:56.438Z,0.00
2022-08-30T03:23:56.448Z,0.00
2022-08-30T03:24:56.416Z,0.00
2022-08-30T03:25:56.408Z,0.00
2022-08-30T03:26:56.391Z,0.00
2022-08-30T03:27:56.376Z,0.00
2022-08-30T03:28:56.396Z,0.00
2022-08-30T03:29:56.364Z,0.00
2022-08-30T03:30:56.354Z,0.00
2022-08-30T03:31:56.367Z,0.00
2022-08-30T03:32:56.335Z,0.00
2022-08-30T03:33:56.337Z,0.00
2022-08-30T03:34:56.310Z,0.00
2022-08-30T03:35:56.305Z,0.00
2022-08-30T03:36:56.292Z,0.00
2022-08-30T03:37:56.503Z,0.00
2022-08-30T03:38:56.290Z,0.00
2022-08-30T03:39:56.395Z,0.00
2022-08-30T03:40:56.253Z,0.00
2022-08-30T03:41:56.242Z,0.00
2022-08-30T03:42:56.249Z,0.00
2022-08-30T03:44:00.198Z,0.00
2022-08-30T03:44:57.213Z,0.00
2022-08-30T03:45:56.231Z,0.00
2022-08-30T03:46:56.211Z,0.00
2022-08-30T03:47:56.181Z,0.00
2022-08-30T03:48:56.197Z,0.00
2022-08-30T03:49:56.154Z,0.00
2022-08-30T03:50:56.155Z,0.00
2022-08-30T03:51:56.141Z,0.00
2022-08-30T03:52:56.136Z,0.00
2022-08-30T03:53:56.131Z,0.00
2022-08-30T03:54:56.118Z,0.00
2022-08-30T03:55:57.250Z,0.00
2022-08-30T03:56:56.098Z,0.00
2022-08-30T03:57:56.082Z,0.00
2022-08-30T03:58:56.098Z,0.00
2022-08-30T03:59:56.064Z,0.00
2022-08-30T04:00:56.098Z,0.00
2022-08-30T04:01:56.077Z,0.00
2022-08-30T04:02:56.044Z,0.00
2022-08-30T04:03:56.044Z,0.00
2022-08-30T04:04:56.012Z,0.00
2022-08-30T04:05:56.006Z,0.00
2022-08-30T04:06:55.991Z,0.00
2022-08-30T04:07:55.979Z,0.00
2022-08-30T04:08:55.984Z,0.00
2022-08-30T04:09:55.972Z,0.00
2022-08-30T04:10:55.951Z,0.00
2022-08-30T04:11:55.943Z,0.00
2022-08-30T04:12:55.929Z,0.00
2022-08-30T04:13:55.937Z,0.00
2022-08-30T04:14:55.902Z,0.00
2022-08-30T04:15:55.903Z,0.00
2022-08-30T04:16:55.894Z,0.00
2022-08-30T04:17:55.877Z,0.00
2022-08-30T04:18:55.883Z,0.00
2022-08-30T04:19:55.854Z,0.00
2022-08-30T04:20:55.846Z,0.00
2022-08-30T04:21:55.835Z,0.00
2022-08-30T04:22:55.833Z,0.00
2022-08-30T04:23:55.833Z,5.62
2022-08-30T04:24:55.813Z,5.62
2022-08-30T04:25:55.798Z,5.62
2022-08-30T04:26:55.789Z,5.62
2022-08-30T04:27:55.774Z,5.62
2022-08-30T04:28:55.786Z,5.62
2022-08-30T04:29:56.315Z,5.62
2022-08-30T04:30:55.749Z,5.62
2022-08-30T04:31:55.816Z,11.25
2022-08-30T04:32:58.758Z,11.25
2022-08-30T04:33:56.732Z,11.25
2022-08-30T04:34:55.708Z,11.25
2022-08-30T04:35:55.701Z,11.25
2022-08-30T04:36:55.689Z,16.88
2022-08-30T04:37:55.676Z,16.88
2022-08-30T04:38:55.685Z,16.88
2022-08-30T04:39:55.662Z,22.50
2022-08-30T04:40:55.651Z,22.50
2022-08-30T04:41:55.637Z,22.50
2022-08-30T04:42:55.628Z,28.12
2022-08-30T04:43:55.637Z,28.12
2022-08-30T04:44:55.608Z,28.12
2022-08-30T04:45:55.651Z,28.12
2022-08-30T04:46:55.593Z,33.75
2022-08-30T04:47:56.378Z,33.75
2022-08-30T04:48:55.589Z,33.75
2022-08-30T04:49:55.560Z,33.75
2022-08-30T04:50:55.556Z,39.38
2022-08-30T04:51:55.579Z,39.38
2022-08-30T04:52:55.542Z,39.38
2022-08-30T04:53:55.533Z,39.38
2022-08-30T04:54:55.514Z,45.00
2022-08-30T04:55:55.503Z,45.00
2022-08-30T04:56:55.491Z,45.00
2022-08-30T04:57:55.489Z,50.62
2022-08-30T04:58:55.495Z,50.62
2022-08-30T04:59:55.471Z,56.25
2022-08-30T05:00:55.502Z,56.25
2022-08-30T05:01:55.497Z,61.88
2022-08-30T05:02:55.435Z,67.50
2022-08-30T05:03:55.441Z,67.50
2022-08-30T05:04:55.420Z,73.12
2022-08-30T05:05:55.414Z,73.12
2022-08-30T05:06:55.401Z,73.12
2022-08-30T05:07:55.392Z,78.75
2022-08-30T05:08:55.440Z,78.75
2022-08-30T05:09:56.372Z,78.75
2022-08-30T05:10:55.358Z,78.75
2022-08-30T05:11:55.338Z,84.38
2022-08-30T05:12:55.340Z,84.38
2022-08-30T05:13:55.350Z,84.38
2022-08-30T05:14:55.319Z,84.38
2022-08-30T05:15:55.365Z,90.00
2022-08-30T05:16:55.288Z,90.00
2022-08-30T05:17:55.281Z,95.62
2022-08-30T05:18:55.291Z,95.62
2022-08-30T05:19:55.269Z,101.25
2022-08-30T05:20:55.259Z,101.25
2022-08-30T05:21:55.249Z,101.25
2022-08-30T05:22:55.281Z,101.25
2022-08-30T05:23:55.238Z,106.88
2022-08-30T05:24:55.207Z,101.25
2022-08-30T05:25:55.202Z,106.88
2022-08-30T05:26:55.191Z,106.88
2022-08-30T05:27:55.186Z,112.50
2022-08-30T05:28:55.193Z,112.50
2022-08-30T05:29:55.156Z,112.50
2022-08-30T05:30:55.152Z,118.12
2022-08-30T05:31:55.190Z,118.12
2022-08-30T05:32:55.124Z,123.75
2022-08-30T05:33:55.137Z,123.75
2022-08-30T05:34:55.111Z,129.38
2022-08-30T05:35:55.107Z,129.38
2022-08-30T05:36:55.101Z,135.00
2022-08-30T05:37:55.094Z,135.00
2022-08-30T05:38:55.099Z,140.62
2022-08-30T05:39:55.069Z,140.62
2022-08-30T05:40:55.058Z,140.62
2022-08-30T05:41:55.050Z,146.25
2022-08-30T05:42:55.037Z,146.25
2022-08-30T05:43:55.040Z,151.88
2022-08-30T05:44:55.019Z,151.88
2022-08-30T05:45:55.005Z,151.88
2022-08-30T05:46:54.997Z,151.88
2022-08-30T05:47:54.987Z,151.88
2022-08-30T05:48:54.981Z,151.88
2022-08-30T05:49:54.962Z,146.25
2022-08-30T05:50:54.955Z,146.25
2022-08-30T05:51:54.941Z,146.25
2022-08-30T05:52:54.949Z,146.25
2022-08-30T05:53:54.938Z,151.88
2022-08-30T05:54:54.916Z,151.88
2022-08-30T05:55:54.905Z,151.88
2022-08-30T05:56:54.903Z,151.88
2022-08-30T05:57:54.883Z,151.88
2022-08-30T05:58:54.894Z,151.88
2022-08-30T05:59:54.865Z,157.50
2022-08-30T06:00:54.861Z,157.50
2022-08-30T06:01:54.891Z,157.50
2022-08-30T06:02:54.902Z,157.50
2022-08-30T06:03:54.838Z,163.12
2022-08-30T06:04:54.810Z,163.12
2022-08-30T06:05:54.809Z,157.50
2022-08-30T06:06:54.790Z,163.12
2022-08-30T06:07:54.779Z,163.12
2022-08-30T06:08:54.792Z,163.12
2022-08-30T06:09:54.762Z,168.75
2022-08-30T06:10:54.755Z,174.38
2022-08-30T06:11:54.743Z,185.62
2022-08-30T06:12:54.740Z,191.25
2022-08-30T06:13:54.746Z,191.25
2022-08-30T06:14:54.711Z,196.88
2022-08-30T06:15:55.711Z,202.50
2022-08-30T06:16:54.690Z,202.50
2022-08-30T06:17:54.682Z,213.75
2022-08-30T06:18:54.691Z,213.75
2022-08-30T06:19:54.662Z,219.38
2022-08-30T06:20:54.651Z,225.00
2022-08-30T06:21:54.645Z,225.00
2022-08-30T06:22:54.635Z,225.00
2022-08-30T06:23:54.641Z,225.00
2022-08-30T06:24:57.563Z,225.00
2022-08-30T06:25:55.609Z,230.62
2022-08-30T06:26:54.605Z,213.75
2022-08-30T06:27:56.583Z,202.50
2022-08-30T06:28:54.594Z,196.88
2022-08-30T06:29:54.564Z,191.25
2022-08-30T06:30:54.631Z,196.88
2022-08-30T06:31:54.550Z,196.88
2022-08-30T06:32:54.545Z,191.25
2022-08-30T06:33:54.559Z,191.25
2022-08-30T06:34:54.525Z,191.25
2022-08-30T06:35:58.740Z,191.25
2022-08-30T06:36:56.500Z,191.25
2022-08-30T06:37:54.491Z,191.25
2022-08-30T06:38:54.499Z,196.88
2022-08-30T06:39:54.487Z,196.88
2022-08-30T06:40:54.465Z,219.38
2022-08-30T06:41:54.454Z,196.88
2022-08-30T06:42:54.449Z,202.50
2022-08-30T06:43:54.456Z,208.12
2022-08-30T06:44:54.439Z,225.00
2022-08-30T06:45:54.409Z,213.75
2022-08-30T06:46:55.454Z,213.75
2022-08-30T06:47:54.455Z,230.62
2022-08-30T06:48:56.236Z,236.25
2022-08-30T06:49:54.389Z,241.88
2022-08-30T06:50:54.373Z,247.50
2022-08-30T06:51:54.359Z,247.50
2022-08-30T06:52:54.340Z,247.50
2022-08-30T06:53:54.355Z,247.50
2022-08-30T06:54:54.329Z,253.12
2022-08-30T06:55:54.317Z,253.12
2022-08-30T06:56:58.578Z,253.12
2022-08-30T06:57:55.290Z,258.75
2022-08-30T06:58:54.288Z,258.75
2022-08-30T06:59:57.201Z,258.75
2022-08-30T07:00:55.271Z,258.75
2022-08-30T07:01:54.313Z,264.38
2022-08-30T07:02:54.314Z,270.00
2022-08-30T07:03:54.240Z,275.62
2022-08-30T07:04:54.250Z,281.25
2022-08-30T07:05:54.213Z,281.25
2022-08-30T07:06:54.211Z,292.50
2022-08-30T07:07:54.209Z,292.50
2022-08-30T07:08:56.024Z,298.12
2022-08-30T07:09:54.185Z,303.75
2022-08-30T07:10:54.171Z,309.38
2022-08-30T07:11:54.163Z,320.62
2022-08-30T07:12:54.149Z,331.88
2022-08-30T07:13:54.139Z,331.88
2022-08-30T07:14:54.139Z,331.88
2022-08-30T07:15:54.143Z,337.50
2022-08-30T07:16:54.106Z,337.50
2022-08-30T07:17:54.098Z,348.75
2022-08-30T07:18:54.101Z,348.75
2022-08-30T07:19:54.089Z,343.12
2022-08-30T07:20:54.068Z,337.50
2022-08-30T07:21:54.060Z,337.50
2022-08-30T07:22:54.049Z,337.50
2022-08-30T07:23:54.039Z,331.88
2022-08-30T07:24:54.044Z,331.88
2022-08-30T07:25:54.020Z,326.25
2022-08-30T07:26:54.009Z,326.25
2022-08-30T07:27:53.999Z,326.25
2022-08-30T07:28:55.851Z,326.25
2022-08-30T07:29:53.989Z,320.62
2022-08-30T07:30:53.969Z,320.62
2022-08-30T07:31:53.960Z,315.00
2022-08-30T07:32:53.952Z,281.25
2022-08-30T07:33:53.938Z,270.00
2022-08-30T07:34:53.945Z,292.50
2022-08-30T07:35:53.918Z,292.50
2022-08-30T07:36:53.908Z,331.88
2022-08-30T07:37:53.899Z,331.88
2022-08-30T07:38:53.890Z,331.88
2022-08-30T07:39:53.897Z,326.25
2022-08-30T07:40:53.871Z,337.50
2022-08-30T07:41:53.861Z,337.50
2022-08-30T07:42:53.849Z,337.50
2022-08-30T07:43:53.838Z,337.50
2022-08-30T07:44:56.813Z,337.50
2022-08-30T07:45:54.821Z,343.12
2022-08-30T07:46:53.838Z,337.50
2022-08-30T07:47:54.797Z,337.50
2022-08-30T07:48:53.788Z,337.50
2022-08-30T07:49:53.799Z,337.50
2022-08-30T07:50:57.694Z,331.88
2022-08-30T07:51:55.754Z,343.12
2022-08-30T07:52:53.749Z,343.12
2022-08-30T07:53:53.738Z,343.12
2022-08-30T07:54:53.743Z,343.12
2022-08-30T07:55:53.715Z,343.12
2022-08-30T07:56:53.710Z,343.12
2022-08-30T07:57:53.737Z,343.12
2022-08-30T07:58:53.687Z,337.50
2022-08-30T07:59:53.692Z,337.50
2022-08-30T08:00:53.705Z,326.25
2022-08-30T08:01:54.688Z,326.25
2022-08-30T08:02:53.733Z,331.88
2022-08-30T08:03:53.641Z,331.88
2022-08-30T08:04:53.644Z,337.50
2022-08-30T08:05:53.611Z,343.12
2022-08-30T08:06:53.614Z,343.12
2022-08-30T08:07:53.603Z,343.12
2022-08-30T08:08:53.602Z,348.75
2022-08-30T08:09:53.598Z,348.75
2022-08-30T08:10:53.597Z,343.12
2022-08-30T08:11:53.565Z,343.12
2022-08-30T08:12:53.551Z,337.50
2022-08-30T08:13:54.556Z,331.88
2022-08-30T08:14:53.548Z,320.62
2022-08-30T08:15:53.589Z,326.25
2022-08-30T08:16:53.511Z,315.00
2022-08-30T08:17:53.507Z,303.75
2022-08-30T08:18:53.496Z,320.62
2022-08-30T08:19:53.502Z,320.62
2022-08-30T08:20:54.818Z,331.88
2022-08-30T08:22:15.385Z,315.00
2022-08-30T08:22:55.460Z,320.62
2022-08-30T08:23:53.451Z,320.62
2022-08-30T08:24:54.453Z,320.62
2022-08-30T08:25:53.429Z,309.38
2022-08-30T08:26:53.418Z,326.25
2022-08-30T08:27:53.403Z,331.88
2022-08-30T08:28:53.398Z,337.50
2022-08-30T08:29:53.400Z,331.88
2022-08-30T08:30:53.421Z,343.12
2022-08-30T08:31:53.379Z,343.12
2022-08-30T08:32:53.343Z,343.12
2022-08-30T08:33:53.415Z,343.12
2022-08-30T08:34:53.347Z,337.50
2022-08-30T08:35:53.324Z,337.50
2022-08-30T08:36:53.310Z,331.88
2022-08-30T08:37:53.304Z,337.50
2022-08-30T08:38:53.296Z,331.88
2022-08-30T08:39:53.303Z,326.25
2022-08-30T08:40:53.278Z,326.25
2022-08-30T08:41:53.270Z,337.50
2022-08-30T08:42:53.258Z,331.88
2022-08-30T08:43:53.247Z,348.75
2022-08-30T08:44:54.625Z,360.00
2022-08-30T08:45:53.247Z,354.38
2022-08-30T08:46:53.214Z,354.38
2022-08-30T08:47:53.200Z,354.38
2022-08-30T08:49:00.914Z,354.38
2022-08-30T08:49:54.204Z,360.00
2022-08-30T08:50:53.187Z,365.62
2022-08-30T08:51:53.169Z,365.62
2022-08-30T08:52:53.151Z,365.62
2022-08-30T08:54:25.056Z,365.62
2022-08-30T08:54:53.157Z,354.38
2022-08-30T08:55:53.139Z,360.00
2022-08-30T08:56:53.111Z,365.62
2022-08-30T08:57:53.115Z,382.50
2022-08-30T08:58:53.101Z,393.75
2022-08-30T08:59:53.111Z,393.75
2022-08-30T09:00:53.079Z,393.75
2022-08-30T09:01:53.122Z,399.38
2022-08-30T09:02:56.010Z,399.38
2022-08-30T09:03:54.057Z,399.38
2022-08-30T09:04:53.079Z,405.00
2022-08-30T09:05:53.030Z,405.00
2022-08-30T09:06:53.019Z,405.00
2022-08-30T09:07:53.023Z,405.00
2022-08-30T09:08:52.994Z,405.00
2022-08-30T09:09:53.018Z,405.00
2022-08-30T09:10:52.984Z,410.62
2022-08-30T09:11:52.990Z,410.62
2022-08-30T09:12:56.806Z,410.62
2022-08-30T09:13:53.951Z,405.00
2022-08-30T09:14:55.463Z,405.00
2022-08-30T09:15:54.994Z,405.00
2022-08-30T09:16:53.922Z,410.62
2022-08-30T09:17:52.915Z,405.00
2022-08-30T09:18:54.803Z,410.62
2022-08-30T09:19:53.913Z,416.25
2022-08-30T09:20:53.001Z,421.88
2022-08-30T09:21:53.002Z,416.25
2022-08-30T09:22:52.868Z,421.88
2022-08-30T09:23:52.855Z,427.50
2022-08-30T09:24:52.872Z,438.75
2022-08-30T09:25:52.841Z,438.75
2022-08-30T09:26:52.834Z,444.38
2022-08-30T09:27:52.827Z,444.38
2022-08-30T09:28:52.816Z,444.38
2022-08-30T09:29:52.823Z,438.75
2022-08-30T09:30:52.879Z,438.75
2022-08-30T09:32:01.310Z,444.38
2022-08-30T09:32:54.785Z,444.38
2022-08-30T09:33:52.806Z,450.00
2022-08-30T09:34:52.779Z,438.75
2022-08-30T09:35:54.221Z,438.75
2022-08-30T09:36:52.741Z,450.00
2022-08-30T09:37:52.735Z,450.00
2022-08-30T09:38:52.721Z,438.75
2022-08-30T09:39:52.728Z,444.38
2022-08-30T09:40:52.702Z,444.38
2022-08-30T09:41:52.694Z,461.25
2022-08-30T09:42:52.699Z,466.88
2022-08-30T09:43:52.674Z,472.50
2022-08-30T09:44:52.682Z,472.50
2022-08-30T09:45:52.706Z,472.50
2022-08-30T09:46:52.656Z,461.25
2022-08-30T09:47:52.641Z,461.25
2022-08-30T09:48:52.624Z,478.12
2022-08-30T09:49:52.635Z,478.12
2022-08-30T09:50:52.855Z,466.88
2022-08-30T09:51:52.603Z,472.50
2022-08-30T09:52:55.416Z,466.88
2022-08-30T09:54:16.760Z,478.12
2022-08-30T09:54:54.586Z,478.12
2022-08-30T09:55:52.570Z,483.75
2022-08-30T09:56:52.541Z,472.50
2022-08-30T09:57:52.541Z,478.12
2022-08-30T09:58:52.527Z,478.12
2022-08-30T09:59:52.532Z,483.75
2022-08-30T10:00:53.544Z,483.75
2022-08-30T10:01:52.491Z,483.75
2022-08-30T10:02:52.498Z,478.12
2022-08-30T10:03:52.481Z,466.88
2022-08-30T10:04:52.473Z,472.50
2022-08-30T10:05:52.457Z,466.88
2022-08-30T10:06:52.461Z,466.88
2022-08-30T10:07:53.680Z,466.88
2022-08-30T10:08:52.422Z,466.88
2022-08-30T10:09:52.417Z,466.88
2022-08-30T10:10:52.424Z,466.88
2022-08-30T10:11:52.402Z,472.50
2022-08-30T10:12:52.386Z,466.88
2022-08-30T10:13:52.378Z,466.88
2022-08-30T10:14:52.388Z,472.50
2022-08-30T10:15:52.373Z,472.50
2022-08-30T10:16:52.347Z,472.50
2022-08-30T10:17:52.340Z,472.50
2022-08-30T10:18:52.331Z,472.50
2022-08-30T10:19:52.340Z,472.50
2022-08-30T10:20:52.323Z,466.88
2022-08-30T10:21:52.302Z,466.88
2022-08-30T10:22:52.302Z,466.88
2022-08-30T10:23:52.279Z,461.25
2022-08-30T10:24:52.290Z,461.25
2022-08-30T10:25:52.259Z,461.25
2022-08-30T10:26:53.000Z,461.25
2022-08-30T10:27:52.243Z,461.25
2022-08-30T10:28:52.327Z,461.25
2022-08-30T10:29:52.239Z,461.25
2022-08-30T10:30:52.217Z,461.25
2022-08-30T10:31:52.212Z,455.62
2022-08-30T10:32:52.201Z,450.00
2022-08-30T10:33:52.190Z,450.00
2022-08-30T10:34:52.219Z,444.38
2022-08-30T10:35:52.165Z,438.75
2022-08-30T10:36:52.159Z,438.75
2022-08-30T10:37:52.142Z,438.75
2022-08-30T10:38:52.142Z,438.75
2022-08-30T10:39:52.130Z,438.75
2022-08-30T10:40:52.107Z,438.75
2022-08-30T10:41:52.101Z,433.12
2022-08-30T10:42:52.090Z,438.75
2022-08-30T10:43:52.625Z,433.12
2022-08-30T10:44:52.094Z,399.38
2022-08-30T10:45:52.060Z,438.75
2022-08-30T10:46:52.073Z,438.75
2022-08-30T10:47:52.035Z,438.75
2022-08-30T10:48:52.031Z,444.38
2022-08-30T10:49:52.029Z,444.38
2022-08-30T10:50:52.003Z,444.38
2022-08-30T10:51:51.997Z,438.75
2022-08-30T10:52:51.991Z,438.75
2022-08-30T10:53:51.987Z,433.12
2022-08-30T10:54:51.996Z,433.12
2022-08-30T10:55:51.967Z,433.12
2022-08-30T10:56:51.948Z,427.50
2022-08-30T10:57:51.937Z,421.88
2022-08-30T10:58:51.932Z,421.88
2022-08-30T10:59:51.941Z,416.25
2022-08-30T11:00:51.966Z,416.25
2022-08-30T11:01:51.992Z,416.25
2022-08-30T11:02:51.891Z,421.88
2022-08-30T11:03:51.884Z,416.25
2022-08-30T11:04:51.891Z,416.25
2022-08-30T11:05:51.858Z,416.25
2022-08-30T11:06:54.886Z,405.00
2022-08-30T11:07:52.838Z,410.62
2022-08-30T11:08:51.834Z,416.25
2022-08-30T11:09:51.841Z,416.25
2022-08-30T11:10:51.815Z,416.25
2022-08-30T11:11:51.800Z,421.88
2022-08-30T11:12:51.791Z,427.50
2022-08-30T11:13:56.902Z,427.50
2022-08-30T11:14:53.785Z,427.50
2022-08-30T11:15:51.763Z,427.50
2022-08-30T11:16:51.763Z,444.38
2022-08-30T11:17:51.751Z,450.00
2022-08-30T11:18:52.051Z,444.38
2022-08-30T11:19:51.723Z,444.38
2022-08-30T11:20:51.720Z,438.75
2022-08-30T11:21:51.702Z,444.38
2022-08-30T11:22:51.700Z,444.38
2022-08-30T11:23:51.691Z,444.38
2022-08-30T11:24:51.680Z,461.25
2022-08-30T11:25:57.564Z,466.88
2022-08-30T11:26:52.655Z,466.88
2022-08-30T11:27:51.734Z,466.88
2022-08-30T11:28:51.638Z,466.88
2022-08-30T11:29:51.643Z,466.88
2022-08-30T11:30:51.620Z,466.88
2022-08-30T11:31:51.615Z,461.25
2022-08-30T11:32:51.598Z,455.62
2022-08-30T11:33:51.588Z,438.75
2022-08-30T11:34:51.591Z,450.00
2022-08-30T11:35:51.570Z,444.38
2022-08-30T11:36:51.558Z,444.38
2022-08-30T11:37:51.550Z,444.38
2022-08-30T11:38:51.535Z,450.00
2022-08-30T11:39:51.567Z,444.38
2022-08-30T11:40:51.514Z,444.38
2022-08-30T11:41:51.510Z,433.12
2022-08-30T11:42:51.513Z,427.50
2022-08-30T11:43:51.493Z,421.88
2022-08-30T11:44:51.510Z,416.25
2022-08-30T11:45:51.551Z,405.00
2022-08-30T11:46:51.467Z,393.75
2022-08-30T11:47:51.460Z,393.75
2022-08-30T11:48:54.418Z,388.12
2022-08-30T11:49:51.451Z,393.75
2022-08-30T11:50:51.430Z,416.25
2022-08-30T11:52:08.528Z,421.88
2022-08-30T11:52:53.417Z,427.50
2022-08-30T11:53:51.407Z,438.75
2022-08-30T11:54:53.198Z,438.75
2022-08-30T11:55:52.377Z,438.75
2022-08-30T11:56:51.363Z,433.12
2022-08-30T11:57:51.366Z,438.75
2022-08-30T11:58:51.355Z,444.38
2022-08-30T11:59:51.358Z,450.00
2022-08-30T12:00:52.933Z,444.38
2022-08-30T12:01:51.960Z,450.00
2022-08-30T12:02:52.431Z,455.62
2022-08-30T12:03:51.313Z,466.88
2022-08-30T12:04:51.292Z,461.25
2022-08-30T12:05:51.640Z,455.62
2022-08-30T12:06:51.273Z,438.75
2022-08-30T12:07:51.267Z,348.75
2022-08-30T12:08:51.387Z,360.00
2022-08-30T12:09:51.251Z,331.88
2022-08-30T12:10:51.248Z,331.88
2022-08-30T12:11:51.216Z,354.38
2022-08-30T12:12:51.216Z,360.00
2022-08-30T12:13:51.217Z,382.50
2022-08-30T12:14:51.216Z,399.38
2022-08-30T12:15:51.179Z,405.00
2022-08-30T12:16:51.199Z,405.00
2022-08-30T12:17:51.164Z,416.25
2022-08-30T12:18:51.140Z,410.62
2022-08-30T12:19:51.145Z,405.00
2022-08-30T12:20:51.158Z,410.62
2022-08-30T12:21:51.120Z,405.00
2022-08-30T12:22:51.115Z,421.88
2022-08-30T12:23:51.113Z,416.25
2022-08-30T12:24:51.115Z,410.62
2022-08-30T12:25:51.083Z,421.88
2022-08-30T12:26:51.106Z,427.50
2022-08-30T12:27:51.072Z,433.12
2022-08-30T12:28:51.062Z,438.75
2022-08-30T12:29:51.073Z,438.75
2022-08-30T12:30:51.045Z,438.75
2022-08-30T12:31:51.080Z,450.00
2022-08-30T12:32:51.030Z,455.62
2022-08-30T12:33:51.768Z,461.25
2022-08-30T12:34:51.025Z,466.88
2022-08-30T12:35:50.990Z,472.50
2022-08-30T12:36:50.973Z,472.50
2022-08-30T12:37:50.964Z,472.50
2022-08-30T12:38:50.957Z,472.50
2022-08-30T12:39:53.402Z,472.50
2022-08-30T12:40:50.919Z,478.12
2022-08-30T12:41:50.927Z,483.75
2022-08-30T12:42:50.923Z,483.75
2022-08-30T12:43:50.903Z,478.12
2022-08-30T12:44:50.890Z,478.12
2022-08-30T12:45:51.398Z,483.75
2022-08-30T12:46:50.878Z,489.38
2022-08-30T12:47:50.861Z,495.00